sensor_id;sensor_type;location;lat;lon;timestamp;temperature;humidity
17381;DHT22;8808;52.478;13.378;2022-11-23T00:02:20;2.20;99.90
17381;DHT22;8808;52.478;13.378;2022-11-23T00:04:47;2.20;99.90
17381;DHT22;8808;52.478;13.378;2022-11-23T00:07:14;2.20;99.90
17381;DHT22;8808;52.478;13.378;2022-11-23T00:09:40;2.20;99.90
17381;DHT22;8808;52.478;13.378;2022-11-23T00:12:08;2.20;99.90
17381;DHT22;8808;52.478;13.378;2022-11-23T00:14:37;1.90;99.90
17381;DHT22;8808;52.478;13.378;2022-11-23T00:17:03;2.20;99.90
17381;DHT22;8808;52.478;13.378;2022-11-23T00:19:30;2.20;99.90
17381;DHT22;8808;52.478;13.378;2022-11-23T00:21:57;2.20;99.90
17381;DHT22;8808;52.478;13.378;2022-11-23T00:24:25;2.20;99.90
17381;DHT22;8808;52.478;13.378;2022-11-23T00:26:51;2.20;99.90
17381;DHT22;8808;52.478;13.378;2022-11-23T00:29:18;2.10;99.90
17381;DHT22;8808;52.478;13.378;2022-11-23T00:31:47;2.10;99.90
17381;DHT22;8808;52.478;13.378;2022-11-23T00:34:14;2.10;99.90
17381;DHT22;8808;52.478;13.378;2022-11-23T00:36:41;2.20;99.90
17381;DHT22;8808;52.478;13.378;2022-11-23T00:39:08;2.10;99.90
17381;DHT22;8808;52.478;13.378;2022-11-23T00:41:35;2.20;99.90
17381;DHT22;8808;52.478;13.378;2022-11-23T00:44:02;2.10;99.90
17381;DHT22;8808;52.478;13.378;2022-11-23T00:46:30;2.10;99.90
17381;DHT22;8808;52.478;13.378;2022-11-23T00:48:58;2.10;99.90
17381;DHT22;8808;52.478;13.378;2022-11-23T00:51:27;2.20;99.90
17381;DHT22;8808;52.478;13.378;2022-11-23T00:53:55;2.10;99.90
17381;DHT22;8808;52.478;13.378;2022-11-23T00:56:21;2.20;99.90
17381;DHT22;8808;52.478;13.378;2022-11-23T00:58:48;2.20;99.90
17381;DHT22;8808;52.478;13.378;2022-11-23T01:01:17;2.20;99.90
17381;DHT22;8808;52.478;13.378;2022-11-23T01:03:46;2.10;99.90
17381;DHT22;8808;52.478;13.378;2022-11-23T01:06:17;2.20;99.90
17381;DHT22;8808;52.478;13.378;2022-11-23T01:08:47;2.10;99.90
17381;DHT22;8808;52.478;13.378;2022-11-23T01:11:15;2.10;99.90
17381;DHT22;8808;52.478;13.378;2022-11-23T01:13:43;2.10;99.90
17381;DHT22;8808;52.478;13.378;2022-11-23T01:16:13;1.90;99.90
17381;DHT22;8808;52.478;13.378;2022-11-23T01:18:40;2.10;99.90
17381;DHT22;8808;52.478;13.378;2022-11-23T01:21:07;2.10;99.90
17381;DHT22;8808;52.478;13.378;2022-11-23T01:23:35;2.20;99.90
17381;DHT22;8808;52.478;13.378;2022-11-23T01:26:04;2.20;99.90
17381;DHT22;8808;52.478;13.378;2022-11-23T01:28:31;2.10;99.90
17381;DHT22;8808;52.478;13.378;2022-11-23T01:31:03;2.20;99.90
17381;DHT22;8808;52.478;13.378;2022-11-23T01:33:30;2.20;99.90
17381;DHT22;8808;52.478;13.378;2022-11-23T01:35:57;2.20;99.90
17381;DHT22;8808;52.478;13.378;2022-11-23T01:38:24;2.20;99.90
17381;DHT22;8808;52.478;13.378;2022-11-23T01:40:52;2.20;99.90
17381;DHT22;8808;52.478;13.378;2022-11-23T01:43:20;2.20;99.90
17381;DHT22;8808;52.478;13.378;2022-11-23T01:45:56;2.20;99.90
17381;DHT22;8808;52.478;13.378;2022-11-23T01:48:25;2.20;99.90
17381;DHT22;8808;52.478;13.378;2022-11-23T01:50:54;2.30;99.90
17381;DHT22;8808;52.478;13.378;2022-11-23T01:53:22;2.30;99.90
17381;DHT22;8808;52.478;13.378;2022-11-23T01:55:50;2.40;99.90
17381;DHT22;8808;52.478;13.378;2022-11-23T01:58:21;2.40;99.90
17381;DHT22;8808;52.478;13.378;2022-11-23T02:03:24;2.40;99.90
17381;DHT22;8808;52.478;13.378;2022-11-23T02:05:56;2.40;99.90
17381;DHT22;8808;52.478;13.378;2022-11-23T02:08:27;2.40;99.90
17381;DHT22;8808;52.478;13.378;2022-11-23T02:10:56;2.40;99.90
17381;DHT22;8808;52.478;13.378;2022-11-23T02:13:25;2.40;99.90
17381;DHT22;8808;52.478;13.378;2022-11-23T02:15:53;2.40;99.90
17381;DHT22;8808;52.478;13.378;2022-11-23T02:18:24;2.70;99.90
17381;DHT22;8808;52.478;13.378;2022-11-23T02:20:52;2.50;99.90
17381;DHT22;8808;52.478;13.378;2022-11-23T02:23:28;2.50;99.90
17381;DHT22;8808;52.478;13.378;2022-11-23T02:26:03;2.50;99.90
17381;DHT22;8808;52.478;13.378;2022-11-23T02:28:35;2.60;99.90
17381;DHT22;8808;52.478;13.378;2022-11-23T02:31:03;2.50;99.90
17381;DHT22;8808;52.478;13.378;2022-11-23T02:33:30;2.50;99.90
17381;DHT22;8808;52.478;13.378;2022-11-23T02:35:58;2.60;99.90
17381;DHT22;8808;52.478;13.378;2022-11-23T02:38:29;2.60;99.90
17381;DHT22;8808;52.478;13.378;2022-11-23T02:40:57;2.60;99.90
17381;DHT22;8808;52.478;13.378;2022-11-23T02:43:25;2.60;99.90
17381;DHT22;8808;52.478;13.378;2022-11-23T02:45:54;2.60;99.90
17381;DHT22;8808;52.478;13.378;2022-11-23T02:48:22;2.60;99.90
17381;DHT22;8808;52.478;13.378;2022-11-23T02:50:49;2.70;99.90
17381;DHT22;8808;52.478;13.378;2022-11-23T02:53:16;2.60;99.90
17381;DHT22;8808;52.478;13.378;2022-11-23T02:55:43;2.60;99.90
17381;DHT22;8808;52.478;13.378;2022-11-23T02:58:11;2.60;99.90
17381;DHT22;8808;52.478;13.378;2022-11-23T03:00:39;2.60;99.90
17381;DHT22;8808;52.478;13.378;2022-11-23T03:03:06;2.60;99.90
17381;DHT22;8808;52.478;13.378;2022-11-23T03:05:33;2.50;99.90
17381;DHT22;8808;52.478;13.378;2022-11-23T03:08:00;2.50;99.90
17381;DHT22;8808;52.478;13.378;2022-11-23T03:10:27;2.50;99.90
17381;DHT22;8808;52.478;13.378;2022-11-23T03:12:55;2.50;99.90
17381;DHT22;8808;52.478;13.378;2022-11-23T03:15:22;2.40;99.90
17381;DHT22;8808;52.478;13.378;2022-11-23T03:17:51;2.40;99.90
17381;DHT22;8808;52.478;13.378;2022-11-23T03:20:18;2.50;99.90
17381;DHT22;8808;52.478;13.378;2022-11-23T03:22:45;2.40;99.90
17381;DHT22;8808;52.478;13.378;2022-11-23T03:25:13;2.40;99.90
17381;DHT22;8808;52.478;13.378;2022-11-23T03:27:39;2.40;99.90
17381;DHT22;8808;52.478;13.378;2022-11-23T03:30:08;2.30;99.90
17381;DHT22;8808;52.478;13.378;2022-11-23T03:32:35;2.40;99.90
17381;DHT22;8808;52.478;13.378;2022-11-23T03:35:04;2.30;99.90
17381;DHT22;8808;52.478;13.378;2022-11-23T03:37:32;2.20;99.90
17381;DHT22;8808;52.478;13.378;2022-11-23T03:39:59;2.20;99.90
17381;DHT22;8808;52.478;13.378;2022-11-23T03:42:26;2.20;99.90
17381;DHT22;8808;52.478;13.378;2022-11-23T03:44:53;2.20;99.90
17381;DHT22;8808;52.478;13.378;2022-11-23T03:47:20;2.20;99.90
17381;DHT22;8808;52.478;13.378;2022-11-23T03:49:47;2.10;99.90
17381;DHT22;8808;52.478;13.378;2022-11-23T03:52:15;2.10;99.90
17381;DHT22;8808;52.478;13.378;2022-11-23T03:54:42;2.00;99.90
17381;DHT22;8808;52.478;13.378;2022-11-23T03:57:09;2.10;99.90
17381;DHT22;8808;52.478;13.378;2022-11-23T03:59:36;2.10;99.90
17381;DHT22;8808;52.478;13.378;2022-11-23T04:02:03;2.00;99.90
17381;DHT22;8808;52.478;13.378;2022-11-23T04:04:30;2.10;99.90
17381;DHT22;8808;52.478;13.378;2022-11-23T04:06:57;2.10;99.90
17381;DHT22;8808;52.478;13.378;2022-11-23T04:09:25;2.10;99.90
17381;DHT22;8808;52.478;13.378;2022-11-23T04:11:53;2.10;99.90
17381;DHT22;8808;52.478;13.378;2022-11-23T04:14:20;2.10;99.90
17381;DHT22;8808;52.478;13.378;2022-11-23T04:16:47;2.10;99.90
17381;DHT22;8808;52.478;13.378;2022-11-23T04:19:14;2.00;99.90
17381;DHT22;8808;52.478;13.378;2022-11-23T04:21:41;2.00;99.90
17381;DHT22;8808;52.478;13.378;2022-11-23T04:24:08;2.00;99.90
17381;DHT22;8808;52.478;13.378;2022-11-23T04:26:36;2.00;99.90
17381;DHT22;8808;52.478;13.378;2022-11-23T04:29:05;2.00;99.90
17381;DHT22;8808;52.478;13.378;2022-11-23T04:31:32;1.90;99.90
17381;DHT22;8808;52.478;13.378;2022-11-23T04:33:59;1.90;99.90
17381;DHT22;8808;52.478;13.378;2022-11-23T04:36:26;1.90;99.90
17381;DHT22;8808;52.478;13.378;2022-11-23T04:38:53;1.90;99.90
17381;DHT22;8808;52.478;13.378;2022-11-23T04:41:20;1.90;99.90
17381;DHT22;8808;52.478;13.378;2022-11-23T04:43:49;1.90;99.90
17381;DHT22;8808;52.478;13.378;2022-11-23T04:46:16;2.00;99.90
17381;DHT22;8808;52.478;13.378;2022-11-23T04:48:43;2.00;99.90
17381;DHT22;8808;52.478;13.378;2022-11-23T04:51:10;2.00;99.90
17381;DHT22;8808;52.478;13.378;2022-11-23T04:53:37;2.10;99.90
17381;DHT22;8808;52.478;13.378;2022-11-23T04:56:05;1.90;99.90
17381;DHT22;8808;52.478;13.378;2022-11-23T04:58:32;1.90;99.90
17381;DHT22;8808;52.478;13.378;2022-11-23T05:01:03;1.90;99.90
17381;DHT22;8808;52.478;13.378;2022-11-23T05:03:31;1.90;99.90
17381;DHT22;8808;52.478;13.378;2022-11-23T05:06:00;1.90;99.90
17381;DHT22;8808;52.478;13.378;2022-11-23T05:08:27;1.90;99.90
17381;DHT22;8808;52.478;13.378;2022-11-23T05:10:54;1.80;99.90
17381;DHT22;8808;52.478;13.378;2022-11-23T05:13:21;1.90;99.90
17381;DHT22;8808;52.478;13.378;2022-11-23T05:15:48;1.90;99.90
17381;DHT22;8808;52.478;13.378;2022-11-23T05:18:17;1.90;99.90
17381;DHT22;8808;52.478;13.378;2022-11-23T05:20:44;2.00;99.90
17381;DHT22;8808;52.478;13.378;2022-11-23T05:23:12;2.00;99.90
17381;DHT22;8808;52.478;13.378;2022-11-23T05:25:39;2.00;99.90
17381;DHT22;8808;52.478;13.378;2022-11-23T05:28:05;2.10;99.90
17381;DHT22;8808;52.478;13.378;2022-11-23T05:30:33;2.10;99.90
17381;DHT22;8808;52.478;13.378;2022-11-23T05:33:00;2.10;99.90
17381;DHT22;8808;52.478;13.378;2022-11-23T05:35:29;2.00;99.90
17381;DHT22;8808;52.478;13.378;2022-11-23T05:37:56;2.10;99.90
17381;DHT22;8808;52.478;13.378;2022-11-23T05:40:23;2.10;99.90
17381;DHT22;8808;52.478;13.378;2022-11-23T05:42:53;2.20;99.90
17381;DHT22;8808;52.478;13.378;2022-11-23T05:45:20;2.20;99.90
17381;DHT22;8808;52.478;13.378;2022-11-23T05:47:49;2.20;99.90
17381;DHT22;8808;52.478;13.378;2022-11-23T05:50:16;2.20;99.90
17381;DHT22;8808;52.478;13.378;2022-11-23T05:52:44;2.20;99.90
17381;DHT22;8808;52.478;13.378;2022-11-23T05:55:11;2.10;99.90
17381;DHT22;8808;52.478;13.378;2022-11-23T05:57:38;2.20;99.90
17381;DHT22;8808;52.478;13.378;2022-11-23T06:00:06;2.10;99.90
17381;DHT22;8808;52.478;13.378;2022-11-23T06:02:35;2.10;99.90
17381;DHT22;8808;52.478;13.378;2022-11-23T06:05:02;2.10;99.90
17381;DHT22;8808;52.478;13.378;2022-11-23T06:07:31;2.10;99.90
17381;DHT22;8808;52.478;13.378;2022-11-23T06:09:59;2.10;99.90
17381;DHT22;8808;52.478;13.378;2022-11-23T06:12:26;2.10;99.90
17381;DHT22;8808;52.478;13.378;2022-11-23T06:14:53;2.10;99.90
17381;DHT22;8808;52.478;13.378;2022-11-23T06:17:21;2.10;99.90
17381;DHT22;8808;52.478;13.378;2022-11-23T06:19:48;2.10;99.90
17381;DHT22;8808;52.478;13.378;2022-11-23T06:22:15;2.10;99.90
17381;DHT22;8808;52.478;13.378;2022-11-23T06:24:42;2.10;99.90
17381;DHT22;8808;52.478;13.378;2022-11-23T06:27:10;2.00;99.90
17381;DHT22;8808;52.478;13.378;2022-11-23T06:29:41;2.10;99.90
17381;DHT22;8808;52.478;13.378;2022-11-23T06:32:08;2.10;99.90
17381;DHT22;8808;52.478;13.378;2022-11-23T06:34:35;2.00;99.90
17381;DHT22;8808;52.478;13.378;2022-11-23T06:37:02;2.00;99.90
17381;DHT22;8808;52.478;13.378;2022-11-23T06:39:28;2.00;99.90
17381;DHT22;8808;52.478;13.378;2022-11-23T06:41:55;2.00;99.90
17381;DHT22;8808;52.478;13.378;2022-11-23T06:44:24;2.00;99.90
17381;DHT22;8808;52.478;13.378;2022-11-23T06:46:51;2.00;99.90
17381;DHT22;8808;52.478;13.378;2022-11-23T06:49:18;2.00;99.90
17381;DHT22;8808;52.478;13.378;2022-11-23T06:51:46;1.90;99.90
17381;DHT22;8808;52.478;13.378;2022-11-23T06:54:13;1.90;99.90
17381;DHT22;8808;52.478;13.378;2022-11-23T06:56:40;2.00;99.90
17381;DHT22;8808;52.478;13.378;2022-11-23T06:59:07;1.90;99.90
17381;DHT22;8808;52.478;13.378;2022-11-23T07:01:35;1.90;99.90
17381;DHT22;8808;52.478;13.378;2022-11-23T07:04:02;1.80;99.90
17381;DHT22;8808;52.478;13.378;2022-11-23T07:06:29;1.90;99.90
17381;DHT22;8808;52.478;13.378;2022-11-23T07:08:56;1.90;99.90
17381;DHT22;8808;52.478;13.378;2022-11-23T07:11:23;1.80;99.90
17381;DHT22;8808;52.478;13.378;2022-11-23T07:13:50;1.90;99.90
17381;DHT22;8808;52.478;13.378;2022-11-23T07:16:17;1.90;99.90
17381;DHT22;8808;52.478;13.378;2022-11-23T07:18:45;1.90;99.90
17381;DHT22;8808;52.478;13.378;2022-11-23T07:21:12;1.90;99.90
17381;DHT22;8808;52.478;13.378;2022-11-23T07:23:39;1.80;99.90
17381;DHT22;8808;52.478;13.378;2022-11-23T07:26:06;2.00;99.90
17381;DHT22;8808;52.478;13.378;2022-11-23T07:28:33;2.10;99.90
17381;DHT22;8808;52.478;13.378;2022-11-23T07:31:00;2.00;99.90
17381;DHT22;8808;52.478;13.378;2022-11-23T07:33:27;1.90;99.90
17381;DHT22;8808;52.478;13.378;2022-11-23T07:35:59;2.00;99.90
17381;DHT22;8808;52.478;13.378;2022-11-23T07:38:27;2.10;99.90
17381;DHT22;8808;52.478;13.378;2022-11-23T07:40:54;2.10;99.90
17381;DHT22;8808;52.478;13.378;2022-11-23T07:43:23;2.10;99.90
17381;DHT22;8808;52.478;13.378;2022-11-23T07:45:50;2.10;99.90
17381;DHT22;8808;52.478;13.378;2022-11-23T07:48:17;2.10;99.90
17381;DHT22;8808;52.478;13.378;2022-11-23T07:50:44;2.10;99.90
17381;DHT22;8808;52.478;13.378;2022-11-23T07:53:13;2.20;99.90
17381;DHT22;8808;52.478;13.378;2022-11-23T07:55:39;2.20;99.90
17381;DHT22;8808;52.478;13.378;2022-11-23T07:58:07;2.30;99.90
17381;DHT22;8808;52.478;13.378;2022-11-23T08:00:36;2.40;99.90
17381;DHT22;8808;52.478;13.378;2022-11-23T08:03:03;2.40;99.90
17381;DHT22;8808;52.478;13.378;2022-11-23T08:05:30;2.40;99.90
17381;DHT22;8808;52.478;13.378;2022-11-23T08:07:58;2.30;99.90
17381;DHT22;8808;52.478;13.378;2022-11-23T08:10:27;2.30;99.90
17381;DHT22;8808;52.478;13.378;2022-11-23T08:12:56;2.50;99.90
17381;DHT22;8808;52.478;13.378;2022-11-23T08:15:23;2.50;99.90
17381;DHT22;8808;52.478;13.378;2022-11-23T08:17:54;2.40;99.90
17381;DHT22;8808;52.478;13.378;2022-11-23T08:20:21;2.50;99.90
17381;DHT22;8808;52.478;13.378;2022-11-23T08:22:48;2.60;99.90
17381;DHT22;8808;52.478;13.378;2022-11-23T08:25:15;2.60;99.90
17381;DHT22;8808;52.478;13.378;2022-11-23T08:27:44;2.60;99.90
17381;DHT22;8808;52.478;13.378;2022-11-23T08:30:11;2.70;99.90
17381;DHT22;8808;52.478;13.378;2022-11-23T08:32:38;2.70;99.90
17381;DHT22;8808;52.478;13.378;2022-11-23T08:35:06;2.70;99.90
17381;DHT22;8808;52.478;13.378;2022-11-23T08:37:33;2.70;99.90
17381;DHT22;8808;52.478;13.378;2022-11-23T08:40:00;2.70;99.90
17381;DHT22;8808;52.478;13.378;2022-11-23T08:42:27;2.70;99.90
17381;DHT22;8808;52.478;13.378;2022-11-23T08:44:55;2.70;99.90
17381;DHT22;8808;52.478;13.378;2022-11-23T08:47:24;2.90;99.90
17381;DHT22;8808;52.478;13.378;2022-11-23T08:49:51;2.90;99.90
17381;DHT22;8808;52.478;13.378;2022-11-23T08:52:18;3.00;99.90
17381;DHT22;8808;52.478;13.378;2022-11-23T08:54:45;3.10;99.90
17381;DHT22;8808;52.478;13.378;2022-11-23T08:57:12;3.10;99.90
17381;DHT22;8808;52.478;13.378;2022-11-23T08:59:39;3.00;99.90
17381;DHT22;8808;52.478;13.378;2022-11-23T09:02:08;3.10;99.90
17381;DHT22;8808;52.478;13.378;2022-11-23T09:04:35;3.20;99.90
17381;DHT22;8808;52.478;13.378;2022-11-23T09:07:02;3.30;99.90
17381;DHT22;8808;52.478;13.378;2022-11-23T09:09:29;3.30;99.90
17381;DHT22;8808;52.478;13.378;2022-11-23T09:11:57;3.30;99.90
17381;DHT22;8808;52.478;13.378;2022-11-23T09:14:23;3.40;99.90
17381;DHT22;8808;52.478;13.378;2022-11-23T09:16:52;3.50;99.90
17381;DHT22;8808;52.478;13.378;2022-11-23T09:19:20;3.70;99.90
17381;DHT22;8808;52.478;13.378;2022-11-23T09:21:47;3.80;99.90
17381;DHT22;8808;52.478;13.378;2022-11-23T09:24:14;4.00;99.90
17381;DHT22;8808;52.478;13.378;2022-11-23T09:26:41;4.00;99.90
17381;DHT22;8808;52.478;13.378;2022-11-23T09:29:08;3.90;99.90
17381;DHT22;8808;52.478;13.378;2022-11-23T09:31:36;3.90;99.90
17381;DHT22;8808;52.478;13.378;2022-11-23T09:34:03;3.90;99.90
17381;DHT22;8808;52.478;13.378;2022-11-23T09:36:32;4.10;99.90
17381;DHT22;8808;52.478;13.378;2022-11-23T09:38:59;4.40;99.90
17381;DHT22;8808;52.478;13.378;2022-11-23T09:44:33;4.40;99.90
17381;DHT22;8808;52.478;13.378;2022-11-23T09:47:14;4.70;99.90
17381;DHT22;8808;52.478;13.378;2022-11-23T09:49:53;4.70;99.90
17381;DHT22;8808;52.478;13.378;2022-11-23T09:52:24;4.80;99.90
17381;DHT22;8808;52.478;13.378;2022-11-23T09:54:54;5.00;99.90
17381;DHT22;8808;52.478;13.378;2022-11-23T09:57:24;5.10;99.90
17381;DHT22;8808;52.478;13.378;2022-11-23T09:59:56;5.00;99.90
17381;DHT22;8808;52.478;13.378;2022-11-23T10:02:26;5.10;99.90
17381;DHT22;8808;52.478;13.378;2022-11-23T10:04:55;5.20;99.90
17381;DHT22;8808;52.478;13.378;2022-11-23T10:07:40;5.30;99.90
17381;DHT22;8808;52.478;13.378;2022-11-23T10:10:20;5.30;99.90
17381;DHT22;8808;52.478;13.378;2022-11-23T10:12:54;5.40;99.90
17381;DHT22;8808;52.478;13.378;2022-11-23T10:15:27;5.50;99.90
17381;DHT22;8808;52.478;13.378;2022-11-23T10:18:08;5.40;99.90
17381;DHT22;8808;52.478;13.378;2022-11-23T10:20:51;5.60;99.90
17381;DHT22;8808;52.478;13.378;2022-11-23T10:23:31;5.60;99.90
17381;DHT22;8808;52.478;13.378;2022-11-23T10:26:02;5.80;99.90
17381;DHT22;8808;52.478;13.378;2022-11-23T10:28:30;5.70;99.90
17381;DHT22;8808;52.478;13.378;2022-11-23T10:31:03;5.70;99.90
17381;DHT22;8808;52.478;13.378;2022-11-23T10:33:39;5.80;99.90
17381;DHT22;8808;52.478;13.378;2022-11-23T10:36:08;5.90;99.90
17381;DHT22;8808;52.478;13.378;2022-11-23T10:38:40;6.00;99.90
17381;DHT22;8808;52.478;13.378;2022-11-23T10:41:09;6.20;99.90
17381;DHT22;8808;52.478;13.378;2022-11-23T10:43:40;6.10;99.90
17381;DHT22;8808;52.478;13.378;2022-11-23T10:46:28;6.00;99.90
17381;DHT22;8808;52.478;13.378;2022-11-23T10:49:09;6.10;99.90
17381;DHT22;8808;52.478;13.378;2022-11-23T10:51:36;6.10;99.90
17381;DHT22;8808;52.478;13.378;2022-11-23T10:54:15;6.30;99.90
17381;DHT22;8808;52.478;13.378;2022-11-23T10:56:45;6.20;99.90
17381;DHT22;8808;52.478;13.378;2022-11-23T10:59:26;6.30;99.90
17381;DHT22;8808;52.478;13.378;2022-11-23T11:01:59;6.40;99.90
17381;DHT22;8808;52.478;13.378;2022-11-23T11:04:26;6.50;99.90
17381;DHT22;8808;52.478;13.378;2022-11-23T11:07:09;6.50;99.90
17381;DHT22;8808;52.478;13.378;2022-11-23T11:09:38;6.60;99.90
17381;DHT22;8808;52.478;13.378;2022-11-23T11:12:15;6.70;99.90
17381;DHT22;8808;52.478;13.378;2022-11-23T11:14:54;6.90;99.90
17381;DHT22;8808;52.478;13.378;2022-11-23T11:17:25;6.80;99.90
17381;DHT22;8808;52.478;13.378;2022-11-23T11:19:53;6.80;99.90
17381;DHT22;8808;52.478;13.378;2022-11-23T11:22:31;7.00;99.90
17381;DHT22;8808;52.478;13.378;2022-11-23T11:25:02;7.10;99.90
17381;DHT22;8808;52.478;13.378;2022-11-23T11:27:30;7.20;99.90
17381;DHT22;8808;52.478;13.378;2022-11-23T11:30:03;7.40;99.90
17381;DHT22;8808;52.478;13.378;2022-11-23T11:32:37;7.20;99.90
17381;DHT22;8808;52.478;13.378;2022-11-23T11:35:12;7.20;99.90
17381;DHT22;8808;52.478;13.378;2022-11-23T11:37:42;7.20;99.90
17381;DHT22;8808;52.478;13.378;2022-11-23T11:40:18;7.20;99.90
17381;DHT22;8808;52.478;13.378;2022-11-23T11:42:52;7.20;99.90
17381;DHT22;8808;52.478;13.378;2022-11-23T11:45:24;7.30;99.90
17381;DHT22;8808;52.478;13.378;2022-11-23T11:47:56;7.40;99.90
17381;DHT22;8808;52.478;13.378;2022-11-23T11:50:28;7.30;99.90
17381;DHT22;8808;52.478;13.378;2022-11-23T11:53:01;7.10;99.90
17381;DHT22;8808;52.478;13.378;2022-11-23T11:55:45;7.20;99.90
17381;DHT22;8808;52.478;13.378;2022-11-23T11:58:15;7.10;99.90
17381;DHT22;8808;52.478;13.378;2022-11-23T12:00:43;7.20;99.90
17381;DHT22;8808;52.478;13.378;2022-11-23T12:03:19;7.30;99.90
17381;DHT22;8808;52.478;13.378;2022-11-23T12:05:50;7.40;99.90
17381;DHT22;8808;52.478;13.378;2022-11-23T12:08:22;7.40;99.90
17381;DHT22;8808;52.478;13.378;2022-11-23T12:10:53;7.60;99.90
17381;DHT22;8808;52.478;13.378;2022-11-23T12:13:23;7.80;99.90
17381;DHT22;8808;52.478;13.378;2022-11-23T12:15:57;7.50;99.90
17381;DHT22;8808;52.478;13.378;2022-11-23T12:18:50;7.40;99.90
17381;DHT22;8808;52.478;13.378;2022-11-23T12:24:40;7.30;99.90
17381;DHT22;8808;52.478;13.378;2022-11-23T12:27:17;7.30;99.90
17381;DHT22;8808;52.478;13.378;2022-11-23T12:30:01;8.20;99.90
17381;DHT22;8808;52.478;13.378;2022-11-23T12:32:38;7.50;99.90
17381;DHT22;8808;52.478;13.378;2022-11-23T12:38:09;7.50;99.90
17381;DHT22;8808;52.478;13.378;2022-11-23T12:40:52;7.60;99.90
17381;DHT22;8808;52.478;13.378;2022-11-23T12:43:27;7.60;99.90
17381;DHT22;8808;52.478;13.378;2022-11-23T12:46:06;7.80;99.90
17381;DHT22;8808;52.478;13.378;2022-11-23T12:48:54;7.70;99.90
17381;DHT22;8808;52.478;13.378;2022-11-23T12:51:32;7.60;99.90
17381;DHT22;8808;52.478;13.378;2022-11-23T12:54:15;7.50;99.90
17381;DHT22;8808;52.478;13.378;2022-11-23T12:56:54;7.60;99.90
17381;DHT22;8808;52.478;13.378;2022-11-23T12:59:25;7.60;99.90
17381;DHT22;8808;52.478;13.378;2022-11-23T13:01:58;7.50;99.90
17381;DHT22;8808;52.478;13.378;2022-11-23T13:04:51;7.60;99.90
17381;DHT22;8808;52.478;13.378;2022-11-23T13:07:53;7.50;99.90
17381;DHT22;8808;52.478;13.378;2022-11-23T13:10:43;7.50;99.90
17381;DHT22;8808;52.478;13.378;2022-11-23T13:13:34;7.50;99.90
17381;DHT22;8808;52.478;13.378;2022-11-23T13:16:22;7.60;99.90
17381;DHT22;8808;52.478;13.378;2022-11-23T13:19:08;7.60;99.90
17381;DHT22;8808;52.478;13.378;2022-11-23T13:21:39;7.60;99.90
17381;DHT22;8808;52.478;13.378;2022-11-23T13:24:22;7.60;99.90
17381;DHT22;8808;52.478;13.378;2022-11-23T13:27:29;7.60;99.90
17381;DHT22;8808;52.478;13.378;2022-11-23T13:29:57;7.60;99.90
17381;DHT22;8808;52.478;13.378;2022-11-23T13:32:45;7.60;
17381;DHT22;8808;52.478;13.378;2022-11-23T13:38:40;7.60;99.90
17381;DHT22;8808;52.478;13.378;2022-11-23T13:44:23;7.60;99.90
17381;DHT22;8808;52.478;13.378;2022-11-23T13:47:03;7.60;99.90
17381;DHT22;8808;52.478;13.378;2022-11-23T13:49:35;7.50;99.90
17381;DHT22;8808;52.478;13.378;2022-11-23T13:55:16;7.50;99.90
17381;DHT22;8808;52.478;13.378;2022-11-23T13:58:35;7.50;99.90
17381;DHT22;8808;52.478;13.378;2022-11-23T14:00:48;7.60;99.90
17381;DHT22;8808;52.478;13.378;2022-11-23T14:03:50;7.60;99.90
17381;DHT22;8808;52.478;13.378;2022-11-23T14:06:25;7.60;99.90
17381;DHT22;8808;52.478;13.378;2022-11-23T14:09:00;7.70;99.90
17381;DHT22;8808;52.478;13.378;2022-11-23T14:11:29;7.70;99.90
17381;DHT22;8808;52.478;13.378;2022-11-23T14:14:04;7.70;99.90
17381;DHT22;8808;52.478;13.378;2022-11-23T14:17:04;7.70;99.90
17381;DHT22;8808;52.478;13.378;2022-11-23T14:19:42;7.70;99.90
17381;DHT22;8808;52.478;13.378;2022-11-23T14:22:20;7.80;99.90
17381;DHT22;8808;52.478;13.378;2022-11-23T14:25:16;7.80;99.90
17381;DHT22;8808;52.478;13.378;2022-11-23T14:27:58;7.60;99.90
17381;DHT22;8808;52.478;13.378;2022-11-23T14:30:39;7.50;99.90
17381;DHT22;8808;52.478;13.378;2022-11-23T14:33:21;7.50;99.90
17381;DHT22;8808;52.478;13.378;2022-11-23T14:35:59;7.40;99.90
17381;DHT22;8808;52.478;13.378;2022-11-23T14:38:40;7.20;99.90
17381;DHT22;8808;52.478;13.378;2022-11-23T14:41:14;7.20;99.90
17381;DHT22;8808;52.478;13.378;2022-11-23T14:43:44;7.10;99.90
17381;DHT22;8808;52.478;13.378;2022-11-23T14:46:16;7.10;99.90
17381;DHT22;8808;52.478;13.378;2022-11-23T14:48:46;6.90;99.90
17381;DHT22;8808;52.478;13.378;2022-11-23T14:51:15;6.90;99.90
17381;DHT22;8808;52.478;13.378;2022-11-23T14:53:45;6.80;99.90
17381;DHT22;8808;52.478;13.378;2022-11-23T14:56:27;6.80;99.90
17381;DHT22;8808;52.478;13.378;2022-11-23T14:59:01;6.70;99.90
17381;DHT22;8808;52.478;13.378;2022-11-23T15:01:28;6.60;99.90
17381;DHT22;8808;52.478;13.378;2022-11-23T15:03:58;6.70;99.90
17381;DHT22;8808;52.478;13.378;2022-11-23T15:06:29;6.50;99.90
17381;DHT22;8808;52.478;13.378;2022-11-23T15:09:05;6.40;99.90
17381;DHT22;8808;52.478;13.378;2022-11-23T15:11:35;6.50;99.90
17381;DHT22;8808;52.478;13.378;2022-11-23T15:14:03;6.40;99.90
17381;DHT22;8808;52.478;13.378;2022-11-23T15:16:42;6.30;99.90
17381;DHT22;8808;52.478;13.378;2022-11-23T15:19:26;6.20;99.90
17381;DHT22;8808;52.478;13.378;2022-11-23T15:21:54;6.20;99.90
17381;DHT22;8808;52.478;13.378;2022-11-23T15:24:22;6.20;99.90
17381;DHT22;8808;52.478;13.378;2022-11-23T15:26:49;6.00;99.90
17381;DHT22;8808;52.478;13.378;2022-11-23T15:29:31;6.10;99.90
17381;DHT22;8808;52.478;13.378;2022-11-23T15:31:58;6.00;99.90
17381;DHT22;8808;52.478;13.378;2022-11-23T15:34:27;6.00;99.90
17381;DHT22;8808;52.478;13.378;2022-11-23T15:36:54;5.90;99.90
17381;DHT22;8808;52.478;13.378;2022-11-23T15:39:22;6.00;99.90
17381;DHT22;8808;52.478;13.378;2022-11-23T15:41:51;6.00;99.90
17381;DHT22;8808;52.478;13.378;2022-11-23T15:44:22;6.00;99.90
17381;DHT22;8808;52.478;13.378;2022-11-23T15:46:50;5.90;99.90
17381;DHT22;8808;52.478;13.378;2022-11-23T15:49:18;5.80;99.90
17381;DHT22;8808;52.478;13.378;2022-11-23T15:51:47;6.00;99.90
17381;DHT22;8808;52.478;13.378;2022-11-23T15:54:17;5.90;99.90
17381;DHT22;8808;52.478;13.378;2022-11-23T15:56:46;5.80;99.90
17381;DHT22;8808;52.478;13.378;2022-11-23T15:59:27;5.80;99.90
17381;DHT22;8808;52.478;13.378;2022-11-23T16:01:56;5.80;99.90
17381;DHT22;8808;52.478;13.378;2022-11-23T16:04:26;5.80;99.90
17381;DHT22;8808;52.478;13.378;2022-11-23T16:06:55;5.80;99.90
17381;DHT22;8808;52.478;13.378;2022-11-23T16:09:46;5.70;99.90
17381;DHT22;8808;52.478;13.378;2022-11-23T16:12:21;5.80;99.90
17381;DHT22;8808;52.478;13.378;2022-11-23T16:14:50;5.90;99.90
17381;DHT22;8808;52.478;13.378;2022-11-23T16:17:19;5.80;99.90
17381;DHT22;8808;52.478;13.378;2022-11-23T16:19:49;5.80;99.90
17381;DHT22;8808;52.478;13.378;2022-11-23T16:22:30;5.80;99.90
17381;DHT22;8808;52.478;13.378;2022-11-23T16:25:03;5.80;99.90
17381;DHT22;8808;52.478;13.378;2022-11-23T16:27:31;5.70;99.90
17381;DHT22;8808;52.478;13.378;2022-11-23T16:29:58;5.50;99.90
17381;DHT22;8808;52.478;13.378;2022-11-23T16:32:28;5.80;99.90